sensor_id;sensor_type;location;lat;lon;timestamp;P1;P2;P0
75960;PMS7003;64644;48.914;2.254;2023-05-10T00:01:46;1.75;1.75;1.00
75960;PMS7003;64644;48.914;2.254;2023-05-10T00:04:12;0.25;0.25;0.00
75960;PMS7003;64644;48.914;2.254;2023-05-10T00:06:37;2.00;2.00;1.00
75960;PMS7003;64644;48.914;2.254;2023-05-10T00:09:03;2.00;1.00;0.00
75960;PMS7003;64644;48.914;2.254;2023-05-10T00:11:28;1.75;1.75;0.00
75960;PMS7003;64644;48.914;2.254;2023-05-10T00:13:54;1.00;1.00;0.50
75960;PMS7003;64644;48.914;2.254;2023-05-10T00:16:20;2.00;0.50;0.00
75960;PMS7003;64644;48.914;2.254;2023-05-10T00:18:45;0.00;0.00;0.00
75960;PMS7003;64644;48.914;2.254;2023-05-10T00:21:10;2.75;1.25;1.00
75960;PMS7003;64644;48.914;2.254;2023-05-10T00:23:36;1.00;1.00;1.00
75960;PMS7003;64644;48.914;2.254;2023-05-10T00:26:01;2.00;0.25;0.00
75960;PMS7003;64644;48.914;2.254;2023-05-10T00:28:27;2.00;0.00;0.00
75960;PMS7003;64644;48.914;2.254;2023-05-10T00:30:53;2.00;1.00;0.00
75960;PMS7003;64644;48.914;2.254;2023-05-10T00:33:18;0.00;0.00;0.00
75960;PMS7003;64644;48.914;2.254;2023-05-10T00:35:44;0.50;0.50;0.00
75960;PMS7003;64644;48.914;2.254;2023-05-10T00:38:09;0.75;0.75;0.00
75960;PMS7003;64644;48.914;2.254;2023-05-10T00:40:35;0.00;0.00;0.00
75960;PMS7003;64644;48.914;2.254;2023-05-10T00:43:02;0.00;0.00;0.00
75960;PMS7003;64644;48.914;2.254;2023-05-10T00:45:28;0.00;0.00;0.00
75960;PMS7003;64644;48.914;2.254;2023-05-10T00:47:54;1.00;0.00;0.00
75960;PMS7003;64644;48.914;2.254;2023-05-10T00:50:21;0.00;0.00;0.00
75960;PMS7003;64644;48.914;2.254;2023-05-10T00:52:48;0.00;0.00;0.00
75960;PMS7003;64644;48.914;2.254;2023-05-10T00:55:14;0.00;0.00;0.00
75960;PMS7003;64644;48.914;2.254;2023-05-10T00:57:39;0.25;0.00;0.00
75960;PMS7003;64644;48.914;2.254;2023-05-10T01:00:05;0.00;0.00;0.00
75960;PMS7003;64644;48.914;2.254;2023-05-10T01:02:31;1.00;0.00;0.00
75960;PMS7003;64644;48.914;2.254;2023-05-10T01:04:58;0.00;0.00;0.00
75960;PMS7003;64644;48.914;2.254;2023-05-10T01:07:24;1.25;0.00;0.00
75960;PMS7003;64644;48.914;2.254;2023-05-10T01:09:50;0.00;0.00;0.00
75960;PMS7003;64644;48.914;2.254;2023-05-10T01:12:16;0.75;0.25;0.25
75960;PMS7003;64644;48.914;2.254;2023-05-10T01:14:41;0.00;0.00;0.00
75960;PMS7003;64644;48.914;2.254;2023-05-10T01:17:07;0.00;0.00;0.00
75960;PMS7003;64644;48.914;2.254;2023-05-10T01:19:34;1.50;0.50;0.00
75960;PMS7003;64644;48.914;2.254;2023-05-10T01:25:18;1.00;0.50;0.00
75960;PMS7003;64644;48.914;2.254;2023-05-10T01:30:42;0.00;0.00;0.00
75960;PMS7003;64644;48.914;2.254;2023-05-10T01:36:13;0.25;0.25;0.00
75960;PMS7003;64644;48.914;2.254;2023-05-10T01:39:08;1.00;1.00;0.00
75960;PMS7003;64644;48.914;2.254;2023-05-10T01:47:08;0.50;0.50;0.00
75960;PMS7003;64644;48.914;2.254;2023-05-10T01:49:39;0.25;0.25;0.00
75960;PMS7003;64644;48.914;2.254;2023-05-10T01:52:10;0.00;0.00;0.00
75960;PMS7003;64644;48.914;2.254;2023-05-10T01:54:40;0.50;0.50;0.00
75960;PMS7003;64644;48.914;2.254;2023-05-10T01:57:09;0.00;0.00;0.00
75960;PMS7003;64644;48.914;2.254;2023-05-10T01:59:39;1.00;0.00;0.00
75960;PMS7003;64644;48.914;2.254;2023-05-10T02:02:07;0.00;0.00;0.00
75960;PMS7003;64644;48.914;2.254;2023-05-10T02:04:36;0.00;0.00;0.00
75960;PMS7003;64644;48.914;2.254;2023-05-10T02:07:03;1.50;1.00;0.00
75960;PMS7003;64644;48.914;2.254;2023-05-10T02:09:30;0.00;0.00;0.00
75960;PMS7003;64644;48.914;2.254;2023-05-10T02:11:58;0.00;0.00;0.00
75960;PMS7003;64644;48.914;2.254;2023-05-10T02:14:27;0.00;0.00;0.00
75960;PMS7003;64644;48.914;2.254;2023-05-10T02:16:55;0.00;0.00;0.00
75960;PMS7003;64644;48.914;2.254;2023-05-10T02:19:23;0.00;0.00;0.00
75960;PMS7003;64644;48.914;2.254;2023-05-10T02:21:50;0.00;0.00;0.00
75960;PMS7003;64644;48.914;2.254;2023-05-10T02:24:16;1.00;1.00;0.00
75960;PMS7003;64644;48.914;2.254;2023-05-10T02:26:43;0.00;0.00;0.00
75960;PMS7003;64644;48.914;2.254;2023-05-10T02:29:10;0.00;0.00;0.00
75960;PMS7003;64644;48.914;2.254;2023-05-10T02:31:37;0.50;0.00;0.00
75960;PMS7003;64644;48.914;2.254;2023-05-10T02:34:03;0.50;0.00;0.00
75960;PMS7003;64644;48.914;2.254;2023-05-10T02:36:30;0.00;0.00;0.00
75960;PMS7003;64644;48.914;2.254;2023-05-10T02:38:56;0.00;0.00;0.00
75960;PMS7003;64644;48.914;2.254;2023-05-10T02:41:25;0.00;0.00;0.00
75960;PMS7003;64644;48.914;2.254;2023-05-10T02:43:53;0.00;0.00;0.00
75960;PMS7003;64644;48.914;2.254;2023-05-10T02:46:24;0.00;0.00;0.00
75960;PMS7003;64644;48.914;2.254;2023-05-10T02:48:49;0.00;0.00;0.00
75960;PMS7003;64644;48.914;2.254;2023-05-10T02:51:15;0.00;0.00;0.00
75960;PMS7003;64644;48.914;2.254;2023-05-10T02:53:46;0.00;0.00;0.00
75960;PMS7003;64644;48.914;2.254;2023-05-10T02:56:28;0.00;0.00;0.00
75960;PMS7003;64644;48.914;2.254;2023-05-10T02:58:57;1.00;0.00;0.00
75960;PMS7003;64644;48.914;2.254;2023-05-10T03:01:22;0.00;0.00;0.00
75960;PMS7003;64644;48.914;2.254;2023-05-10T03:03:48;0.00;0.00;0.00
75960;PMS7003;64644;48.914;2.254;2023-05-10T03:06:14;0.00;0.00;0.00
75960;PMS7003;64644;48.914;2.254;2023-05-10T03:08:39;0.00;0.00;0.00
75960;PMS7003;64644;48.914;2.254;2023-05-10T03:16:41;0.00;0.00;0.00
75960;PMS7003;64644;48.914;2.254;2023-05-10T03:19:17;0.00;0.00;0.00
75960;PMS7003;64644;48.914;2.254;2023-05-10T03:21:50;0.00;0.00;0.00
75960;PMS7003;64644;48.914;2.254;2023-05-10T03:24:18;0.00;0.00;0.00
75960;PMS7003;64644;48.914;2.254;2023-05-10T03:26:46;1.75;0.75;0.00
75960;PMS7003;64644;48.914;2.254;2023-05-10T03:29:13;0.00;0.00;0.00
75960;PMS7003;64644;48.914;2.254;2023-05-10T03:31:40;0.75;0.75;0.00
75960;PMS7003;64644;48.914;2.254;2023-05-10T03:34:06;0.25;0.00;0.00
75960;PMS7003;64644;48.914;2.254;2023-05-10T03:36:31;0.00;0.00;0.00
75960;PMS7003;64644;48.914;2.254;2023-05-10T03:38:57;0.00;0.00;0.00
75960;PMS7003;64644;48.914;2.254;2023-05-10T03:41:23;0.00;0.00;0.00
75960;PMS7003;64644;48.914;2.254;2023-05-10T03:43:48;0.00;0.00;0.00
75960;PMS7003;64644;48.914;2.254;2023-05-10T03:46:14;0.00;0.00;0.00
75960;PMS7003;64644;48.914;2.254;2023-05-10T03:48:39;0.00;0.00;0.00
75960;PMS7003;64644;48.914;2.254;2023-05-10T03:51:04;0.00;0.00;0.00
75960;PMS7003;64644;48.914;2.254;2023-05-10T03:53:30;0.00;0.00;0.00
75960;PMS7003;64644;48.914;2.254;2023-05-10T03:55:55;0.00;0.00;0.00
75960;PMS7003;64644;48.914;2.254;2023-05-10T03:58:20;0.00;0.00;0.00
75960;PMS7003;64644;48.914;2.254;2023-05-10T04:00:46;0.00;0.00;0.00
75960;PMS7003;64644;48.914;2.254;2023-05-10T04:03:12;0.00;0.00;0.00
75960;PMS7003;64644;48.914;2.254;2023-05-10T04:05:38;0.00;0.00;0.00
75960;PMS7003;64644;48.914;2.254;2023-05-10T04:08:03;0.00;0.00;0.00
75960;PMS7003;64644;48.914;2.254;2023-05-10T04:10:30;0.25;0.00;0.00
75960;PMS7003;64644;48.914;2.254;2023-05-10T04:12:55;0.50;0.50;0.00
75960;PMS7003;64644;48.914;2.254;2023-05-10T04:15:21;1.00;0.00;0.00
75960;PMS7003;64644;48.914;2.254;2023-05-10T04:17:46;0.00;0.00;0.00
75960;PMS7003;64644;48.914;2.254;2023-05-10T04:20:12;0.00;0.00;0.00
75960;PMS7003;64644;48.914;2.254;2023-05-10T04:22:38;0.00;0.00;0.00
75960;PMS7003;64644;48.914;2.254;2023-05-10T04:25:03;0.00;0.00;0.00
75960;PMS7003;64644;48.914;2.254;2023-05-10T04:27:29;0.00;0.00;0.00
75960;PMS7003;64644;48.914;2.254;2023-05-10T04:29:55;0.75;0.00;0.00
75960;PMS7003;64644;48.914;2.254;2023-05-10T04:32:21;0.00;0.00;0.00
75960;PMS7003;64644;48.914;2.254;2023-05-10T04:34:46;0.00;0.00;0.00
75960;PMS7003;64644;48.914;2.254;2023-05-10T04:37:12;0.25;0.25;0.00
75960;PMS7003;64644;48.914;2.254;2023-05-10T04:39:37;0.50;0.50;0.00
75960;PMS7003;64644;48.914;2.254;2023-05-10T04:42:02;0.00;0.00;0.00
75960;PMS7003;64644;48.914;2.254;2023-05-10T04:44:30;0.00;0.00;0.00
75960;PMS7003;64644;48.914;2.254;2023-05-10T04:46:56;0.00;0.00;0.00
75960;PMS7003;64644;48.914;2.254;2023-05-10T04:49:21;0.00;0.00;0.00
75960;PMS7003;64644;48.914;2.254;2023-05-10T04:51:46;1.50;1.50;1.00
75960;PMS7003;64644;48.914;2.254;2023-05-10T04:54:12;0.00;0.00;0.00
75960;PMS7003;64644;48.914;2.254;2023-05-10T04:56:37;0.00;0.00;0.00
75960;PMS7003;64644;48.914;2.254;2023-05-10T04:59:02;1.75;0.50;0.50
75960;PMS7003;64644;48.914;2.254;2023-05-10T05:01:28;0.00;0.00;0.00
75960;PMS7003;64644;48.914;2.254;2023-05-10T05:03:54;0.00;0.00;0.00
75960;PMS7003;64644;48.914;2.254;2023-05-10T05:06:19;0.00;0.00;0.00
75960;PMS7003;64644;48.914;2.254;2023-05-10T05:08:46;0.00;0.00;0.00
75960;PMS7003;64644;48.914;2.254;2023-05-10T05:11:11;0.75;0.75;0.50
75960;PMS7003;64644;48.914;2.254;2023-05-10T05:13:36;1.75;1.00;0.00
75960;PMS7003;64644;48.914;2.254;2023-05-10T05:16:02;0.00;0.00;0.00
75960;PMS7003;64644;48.914;2.254;2023-05-10T05:18:28;1.25;0.25;0.00
75960;PMS7003;64644;48.914;2.254;2023-05-10T05:20:53;2.25;1.00;1.00
75960;PMS7003;64644;48.914;2.254;2023-05-10T05:23:18;1.25;0.00;0.00
75960;PMS7003;64644;48.914;2.254;2023-05-10T05:25:45;0.00;0.00;0.00
75960;PMS7003;64644;48.914;2.254;2023-05-10T05:28:11;1.00;1.00;0.00
75960;PMS7003;64644;48.914;2.254;2023-05-10T05:30:36;1.75;0.25;0.00
75960;PMS7003;64644;48.914;2.254;2023-05-10T05:33:01;2.75;1.00;1.00
75960;PMS7003;64644;48.914;2.254;2023-05-10T05:35:27;1.25;1.00;1.00
75960;PMS7003;64644;48.914;2.254;2023-05-10T05:37:52;1.00;1.00;1.00
75960;PMS7003;64644;48.914;2.254;2023-05-10T05:40:17;1.00;1.00;0.75
75960;PMS7003;64644;48.914;2.254;2023-05-10T05:42:43;3.00;1.00;0.00
75960;PMS7003;64644;48.914;2.254;2023-05-10T05:45:08;0.50;0.50;0.00
75960;PMS7003;64644;48.914;2.254;2023-05-10T05:47:37;2.00;0.75;0.50
75960;PMS7003;64644;48.914;2.254;2023-05-10T05:50:03;1.00;1.00;1.00
75960;PMS7003;64644;48.914;2.254;2023-05-10T05:52:29;1.00;1.00;0.50
75960;PMS7003;64644;48.914;2.254;2023-05-10T05:54:55;2.00;1.50;1.00
75960;PMS7003;64644;48.914;2.254;2023-05-10T05:57:20;2.00;2.00;1.00
75960;PMS7003;64644;48.914;2.254;2023-05-10T05:59:46;3.50;3.50;2.00
75960;PMS7003;64644;48.914;2.254;2023-05-10T06:02:11;0.00;0.00;0.00
75960;PMS7003;64644;48.914;2.254;2023-05-10T06:04:37;1.50;1.00;1.00
75960;PMS7003;64644;48.914;2.254;2023-05-10T06:07:02;1.50;1.50;1.00
75960;PMS7003;64644;48.914;2.254;2023-05-10T06:09:27;2.75;1.50;1.00
75960;PMS7003;64644;48.914;2.254;2023-05-10T06:11:53;7.25;4.00;2.75
75960;PMS7003;64644;48.914;2.254;2023-05-10T06:14:20;9.00;7.50;2.25
75960;PMS7003;64644;48.914;2.254;2023-05-10T06:16:45;4.75;4.00;2.50
75960;PMS7003;64644;48.914;2.254;2023-05-10T06:19:11;7.50;3.50;2.25
75960;PMS7003;64644;48.914;2.254;2023-05-10T06:21:36;6.00;6.00;1.50
75960;PMS7003;64644;48.914;2.254;2023-05-10T06:24:02;8.25;5.75;2.75
75960;PMS7003;64644;48.914;2.254;2023-05-10T06:26:27;3.25;2.00;2.00
75960;PMS7003;64644;48.914;2.254;2023-05-10T06:28:53;2.75;2.75;2.00
75960;PMS7003;64644;48.914;2.254;2023-05-10T06:31:18;3.00;1.25;1.00
75960;PMS7003;64644;48.914;2.254;2023-05-10T06:33:43;2.00;2.00;1.00
75960;PMS7003;64644;48.914;2.254;2023-05-10T06:36:09;0.25;0.25;0.25
75960;PMS7003;64644;48.914;2.254;2023-05-10T06:38:35;5.00;2.00;1.00
75960;PMS7003;64644;48.914;2.254;2023-05-10T06:41:00;1.75;1.75;1.00
75960;PMS7003;64644;48.914;2.254;2023-05-10T06:43:25;1.50;1.50;1.00
75960;PMS7003;64644;48.914;2.254;2023-05-10T06:45:51;3.00;3.00;2.00
75960;PMS7003;64644;48.914;2.254;2023-05-10T06:48:16;2.00;2.00;1.00
75960;PMS7003;64644;48.914;2.254;2023-05-10T06:50:42;3.00;3.00;2.75
75960;PMS7003;64644;48.914;2.254;2023-05-10T06:53:07;1.00;1.00;1.00
75960;PMS7003;64644;48.914;2.254;2023-05-10T06:55:32;3.75;2.50;1.50
75960;PMS7003;64644;48.914;2.254;2023-05-10T06:57:58;2.75;2.75;1.00
75960;PMS7003;64644;48.914;2.254;2023-05-10T07:00:23;2.00;1.00;1.00
75960;PMS7003;64644;48.914;2.254;2023-05-10T07:02:49;3.00;1.75;1.75
75960;PMS7003;64644;48.914;2.254;2023-05-10T07:05:14;3.00;2.25;1.25
75960;PMS7003;64644;48.914;2.254;2023-05-10T07:07:40;3.00;3.00;2.25
75960;PMS7003;64644;48.914;2.254;2023-05-10T07:10:05;3.00;3.00;1.00
75960;PMS7003;64644;48.914;2.254;2023-05-10T07:12:32;3.00;3.00;1.25
75960;PMS7003;64644;48.914;2.254;2023-05-10T07:14:57;4.25;3.00;2.00
75960;PMS7003;64644;48.914;2.254;2023-05-10T07:17:23;2.00;2.00;1.00
75960;PMS7003;64644;48.914;2.254;2023-05-10T07:19:48;4.25;3.00;2.00
75960;PMS7003;64644;48.914;2.254;2023-05-10T07:22:14;1.50;1.50;1.50
75960;PMS7003;64644;48.914;2.254;2023-05-10T07:24:40;3.25;3.00;2.50
75960;PMS7003;64644;48.914;2.254;2023-05-10T07:27:05;4.00;2.50;2.50
75960;PMS7003;64644;48.914;2.254;2023-05-10T07:29:31;3.50;3.50;2.00
75960;PMS7003;64644;48.914;2.254;2023-05-10T07:31:56;7.00;4.00;3.00
75960;PMS7003;64644;48.914;2.254;2023-05-10T07:34:22;6.25;5.00;3.00
75960;PMS7003;64644;48.914;2.254;2023-05-10T07:36:47;2.75;2.75;2.00
75960;PMS7003;64644;48.914;2.254;2023-05-10T07:39:13;4.00;3.50;2.75
75960;PMS7003;64644;48.914;2.254;2023-05-10T07:41:38;2.00;2.00;1.25
75960;PMS7003;64644;48.914;2.254;2023-05-10T07:44:03;4.25;3.25;2.00
75960;PMS7003;64644;48.914;2.254;2023-05-10T07:46:29;2.50;2.50;1.50
75960;PMS7003;64644;48.914;2.254;2023-05-10T07:48:55;4.25;2.25;1.25
75960;PMS7003;64644;48.914;2.254;2023-05-10T07:51:20;4.00;4.00;2.00
75960;PMS7003;64644;48.914;2.254;2023-05-10T07:53:46;3.00;3.00;1.25
75960;PMS7003;64644;48.914;2.254;2023-05-10T07:56:22;2.75;2.75;1.75
75960;PMS7003;64644;48.914;2.254;2023-05-10T07:58:50;4.00;4.00;3.00
75960;PMS7003;64644;48.914;2.254;2023-05-10T08:01:16;4.00;3.50;2.25
75960;PMS7003;64644;48.914;2.254;2023-05-10T08:03:41;5.75;4.25;3.00
75960;PMS7003;64644;48.914;2.254;2023-05-10T08:06:07;9.25;5.75;3.00
75960;PMS7003;64644;48.914;2.254;2023-05-10T08:08:32;5.50;3.75;3.75
75960;PMS7003;64644;48.914;2.254;2023-05-10T08:10:57;7.50;6.00;3.00
75960;PMS7003;64644;48.914;2.254;2023-05-10T08:13:23;4.50;4.50;3.00
75960;PMS7003;64644;48.914;2.254;2023-05-10T08:15:48;8.50;5.25;3.00
75960;PMS7003;64644;48.914;2.254;2023-05-10T08:18:13;6.00;4.00;3.00
75960;PMS7003;64644;48.914;2.254;2023-05-10T08:20:38;9.00;7.25;4.00
75960;PMS7003;64644;48.914;2.254;2023-05-10T08:23:04;8.00;8.00;4.00
75960;PMS7003;64644;48.914;2.254;2023-05-10T08:25:29;10.00;7.25;4.00
75960;PMS7003;64644;48.914;2.254;2023-05-10T08:27:55;12.00;11.25;7.00
75960;PMS7003;64644;48.914;2.254;2023-05-10T08:30:20;4.00;3.00;2.50
75960;PMS7003;64644;48.914;2.254;2023-05-10T08:32:45;7.75;7.00;5.00
75960;PMS7003;64644;48.914;2.254;2023-05-10T08:35:11;7.25;7.25;5.00
75960;PMS7003;64644;48.914;2.254;2023-05-10T08:37:36;8.00;6.00;3.00
75960;PMS7003;64644;48.914;2.254;2023-05-10T08:40:01;6.25;5.50;3.25
75960;PMS7003;64644;48.914;2.254;2023-05-10T08:42:28;5.50;5.50;3.00
75960;PMS7003;64644;48.914;2.254;2023-05-10T08:44:56;3.50;3.50;3.00
75960;PMS7003;64644;48.914;2.254;2023-05-10T08:47:24;7.00;6.75;5.00
75960;PMS7003;64644;48.914;2.254;2023-05-10T08:49:50;7.50;7.50;3.00
75960;PMS7003;64644;48.914;2.254;2023-05-10T08:52:17;5.00;4.00;3.75
75960;PMS7003;64644;48.914;2.254;2023-05-10T08:54:43;5.50;3.50;3.00
75960;PMS7003;64644;48.914;2.254;2023-05-10T08:57:09;6.00;6.00;3.00
75960;PMS7003;64644;48.914;2.254;2023-05-10T08:59:35;7.25;7.25;5.00
75960;PMS7003;64644;48.914;2.254;2023-05-10T09:02:03;8.25;7.50;4.00
75960;PMS7003;64644;48.914;2.254;2023-05-10T09:04:30;8.00;8.00;4.00
75960;PMS7003;64644;48.914;2.254;2023-05-10T09:06:56;8.00;6.50;3.75
75960;PMS7003;64644;48.914;2.254;2023-05-10T09:09:21;6.75;6.75;3.75
75960;PMS7003;64644;48.914;2.254;2023-05-10T09:11:50;5.00;5.00;3.75
75960;PMS7003;64644;48.914;2.254;2023-05-10T09:14:16;4.00;4.00;3.00
75960;PMS7003;64644;48.914;2.254;2023-05-10T09:16:42;5.50;5.50;3.50
75960;PMS7003;64644;48.914;2.254;2023-05-10T09:19:07;7.00;6.50;3.00
75960;PMS7003;64644;48.914;2.254;2023-05-10T09:21:34;7.75;5.75;4.00
75960;PMS7003;64644;48.914;2.254;2023-05-10T09:24:03;6.00;5.50;3.00
75960;PMS7003;64644;48.914;2.254;2023-05-10T09:26:30;9.00;6.75;4.00
75960;PMS7003;64644;48.914;2.254;2023-05-10T09:28:57;8.75;6.75;4.00
75960;PMS7003;64644;48.914;2.254;2023-05-10T09:31:23;10.75;6.00;4.00
75960;PMS7003;64644;48.914;2.254;2023-05-10T09:33:50;12.00;7.75;6.00
75960;PMS7003;64644;48.914;2.254;2023-05-10T09:36:16;8.50;4.00;3.50
75960;PMS7003;64644;48.914;2.254;2023-05-10T09:38:48;12.75;8.75;6.00
75960;PMS7003;64644;48.914;2.254;2023-05-10T09:41:16;10.00;8.25;4.00
75960;PMS7003;64644;48.914;2.254;2023-05-10T09:43:43;8.00;7.50;5.00
75960;PMS7003;64644;48.914;2.254;2023-05-10T09:46:08;9.00;7.00;6.00
75960;PMS7003;64644;48.914;2.254;2023-05-10T09:48:38;7.75;6.75;4.00
75960;PMS7003;64644;48.914;2.254;2023-05-10T09:51:10;7.25;4.50;3.00
75960;PMS7003;64644;48.914;2.254;2023-05-10T09:53:43;10.00;8.75;5.50
75960;PMS7003;64644;48.914;2.254;2023-05-10T09:56:08;8.00;8.00;6.00
75960;PMS7003;64644;48.914;2.254;2023-05-10T09:58:36;8.50;7.50;3.75
75960;PMS7003;64644;48.914;2.254;2023-05-10T10:01:03;10.50;7.25;5.75
75960;PMS7003;64644;48.914;2.254;2023-05-10T10:03:28;7.75;7.00;4.00
75960;PMS7003;64644;48.914;2.254;2023-05-10T10:05:55;8.50;7.25;4.00
75960;PMS7003;64644;48.914;2.254;2023-05-10T10:08:21;11.75;8.50;6.00
75960;PMS7003;64644;48.914;2.254;2023-05-10T10:10:46;9.25;9.00;6.00
75960;PMS7003;64644;48.914;2.254;2023-05-10T10:13:13;9.25;9.25;6.25
75960;PMS7003;64644;48.914;2.254;2023-05-10T10:15:38;12.00;9.25;6.50
75960;PMS7003;64644;48.914;2.254;2023-05-10T10:18:04;8.50;7.00;3.75
75960;PMS7003;64644;48.914;2.254;2023-05-10T10:20:30;8.75;7.50;5.50
75960;PMS7003;64644;48.914;2.254;2023-05-10T10:22:55;13.50;9.75;5.00
75960;PMS7003;64644;48.914;2.254;2023-05-10T10:25:21;6.25;5.75;3.25
75960;PMS7003;64644;48.914;2.254;2023-05-10T10:30:28;9.00;7.50;6.00
75960;PMS7003;64644;48.914;2.254;2023-05-10T10:32:59;13.25;11.25;5.75
75960;PMS7003;64644;48.914;2.254;2023-05-10T10:35:27;9.00;8.00;4.00
75960;PMS7003;64644;48.914;2.254;2023-05-10T10:37:54;10.50;7.50;4.00
75960;PMS7003;64644;48.914;2.254;2023-05-10T10:40:38;12.50;8.25;3.25
75960;PMS7003;64644;48.914;2.254;2023-05-10T10:48:40;11.25;7.75;6.00
75960;PMS7003;64644;48.914;2.254;2023-05-10T10:51:06;7.00;7.00;3.50
75960;PMS7003;64644;48.914;2.254;2023-05-10T10:53:32;11.25;8.25;5.25
75960;PMS7003;64644;48.914;2.254;2023-05-10T10:58:34;14.00;10.00;4.50
75960;PMS7003;64644;48.914;2.254;2023-05-10T11:01:08;8.50;8.50;4.00
75960;PMS7003;64644;48.914;2.254;2023-05-10T11:03:35;9.25;8.25;5.25
75960;PMS7003;64644;48.914;2.254;2023-05-10T11:06:00;15.00;9.50;5.00
75960;PMS7003;64644;48.914;2.254;2023-05-10T11:13:27;5.50;5.00;3.50
75960;PMS7003;64644;48.914;2.254;2023-05-10T11:16:13;7.00;6.75;4.00
75960;PMS7003;64644;48.914;2.254;2023-05-10T11:18:53;9.50;7.50;4.00
75960;PMS7003;64644;48.914;2.254;2023-05-10T11:21:21;9.50;8.75;4.75
75960;PMS7003;64644;48.914;2.254;2023-05-10T11:23:48;9.75;8.75;4.50
75960;PMS7003;64644;48.914;2.254;2023-05-10T11:26:15;9.00;8.75;7.00
75960;PMS7003;64644;48.914;2.254;2023-05-10T11:28:41;6.00;6.00;3.00
75960;PMS7003;64644;48.914;2.254;2023-05-10T11:31:07;10.50;7.00;3.75
75960;PMS7003;64644;48.914;2.254;2023-05-10T11:33:42;8.00;7.00;4.75
75960;PMS7003;64644;48.914;2.254;2023-05-10T11:36:12;8.75;8.00;4.00
75960;PMS7003;64644;48.914;2.254;2023-05-10T11:38:44;9.00;4.75;3.50
75960;PMS7003;64644;48.914;2.254;2023-05-10T11:41:11;7.50;4.00;3.00
75960;PMS7003;64644;48.914;2.254;2023-05-10T11:43:38;8.00;7.00;4.00
75960;PMS7003;64644;48.914;2.254;2023-05-10T11:46:07;4.00;3.00;2.50
75960;PMS7003;64644;48.914;2.254;2023-05-10T11:48:34;7.50;7.50;4.75
75960;PMS7003;64644;48.914;2.254;2023-05-10T11:51:00;8.50;6.25;3.00
75960;PMS7003;64644;48.914;2.254;2023-05-10T11:53:27;7.75;7.25;4.75
75960;PMS7003;64644;48.914;2.254;2023-05-10T11:55:53;6.00;4.00;3.75
75960;PMS7003;64644;48.914;2.254;2023-05-10T11:58:18;8.00;5.00;3.25
75960;PMS7003;64644;48.914;2.254;2023-05-10T12:00:44;5.50;5.50;4.00
75960;PMS7003;64644;48.914;2.254;2023-05-10T12:03:10;9.25;7.25;4.50
75960;PMS7003;64644;48.914;2.254;2023-05-10T12:05:36;6.00;5.00;3.00
75960;PMS7003;64644;48.914;2.254;2023-05-10T12:08:14;6.00;5.50;3.00
75960;PMS7003;64644;48.914;2.254;2023-05-10T12:10:40;4.50;4.50;3.25
75960;PMS7003;64644;48.914;2.254;2023-05-10T12:13:10;6.75;6.00;3.50
75960;PMS7003;64644;48.914;2.254;2023-05-10T12:15:37;6.00;4.50;3.00
75960;PMS7003;64644;48.914;2.254;2023-05-10T12:18:02;8.75;6.25;4.00
75960;PMS7003;64644;48.914;2.254;2023-05-10T12:20:28;6.00;5.00;4.00
75960;PMS7003;64644;48.914;2.254;2023-05-10T12:22:55;9.00;8.75;4.75
75960;PMS7003;64644;48.914;2.254;2023-05-10T12:25:22;8.25;8.25;5.00
75960;PMS7003;64644;48.914;2.254;2023-05-10T12:27:52;7.75;4.50;4.00
75960;PMS7003;64644;48.914;2.254;2023-05-10T12:30:23;7.50;6.25;3.50
75960;PMS7003;64644;48.914;2.254;2023-05-10T12:32:49;5.00;5.00;3.25
75960;PMS7003;64644;48.914;2.254;2023-05-10T12:35:15;5.00;5.00;3.00
75960;PMS7003;64644;48.914;2.254;2023-05-10T12:37:42;5.75;5.75;3.00
75960;PMS7003;64644;48.914;2.254;2023-05-10T12:40:08;6.50;5.25;3.00
75960;PMS7003;64644;48.914;2.254;2023-05-10T12:42:35;9.50;6.00;4.00
75960;PMS7003;64644;48.914;2.254;2023-05-10T12:45:02;7.00;5.00;3.50
75960;PMS7003;64644;48.914;2.254;2023-05-10T12:47:28;7.25;5.25;4.00
75960;PMS7003;64644;48.914;2.254;2023-05-10T12:49:54;7.00;5.75;4.00
75960;PMS7003;64644;48.914;2.254;2023-05-10T12:52:19;6.00;6.00;3.00
75960;PMS7003;64644;48.914;2.254;2023-05-10T12:54:45;7.00;6.00;4.00
75960;PMS7003;64644;48.914;2.254;2023-05-10T12:57:10;6.75;6.75;4.00
75960;PMS7003;64644;48.914;2.254;2023-05-10T12:59:36;9.75;6.25;4.25
75960;PMS7003;64644;48.914;2.254;2023-05-10T13:02:01;10.00;7.50;5.00
75960;PMS7003;64644;48.914;2.254;2023-05-10T13:04:26;6.50;5.50;3.00
75960;PMS7003;64644;48.914;2.254;2023-05-10T13:06:52;7.00;7.00;4.00
75960;PMS7003;64644;48.914;2.254;2023-05-10T13:09:17;6.00;5.25;4.00
75960;PMS7003;64644;48.914;2.254;2023-05-10T13:11:42;8.25;5.50;3.75
75960;PMS7003;64644;48.914;2.254;2023-05-10T13:14:08;5.75;5.25;3.50
75960;PMS7003;64644;48.914;2.254;2023-05-10T13:16:33;6.00;5.75;4.25
75960;PMS7003;64644;48.914;2.254;2023-05-10T13:18:59;5.00;5.00;3.50
75960;PMS7003;64644;48.914;2.254;2023-05-10T13:21:24;5.25;4.50;4.00
75960;PMS7003;64644;48.914;2.254;2023-05-10T13:23:50;4.00;4.00;3.00
75960;PMS7003;64644;48.914;2.254;2023-05-10T13:26:15;6.25;5.50;4.75
75960;PMS7003;64644;48.914;2.254;2023-05-10T13:28:41;5.75;5.25;4.00
75960;PMS7003;64644;48.914;2.254;2023-05-10T13:31:06;5.25;5.00;4.00
75960;PMS7003;64644;48.914;2.254;2023-05-10T13:33:32;11.75;8.50;5.00
75960;PMS7003;64644;48.914;2.254;2023-05-10T13:35:57;8.50;8.00;5.50
75960;PMS7003;64644;48.914;2.254;2023-05-10T13:38:22;6.25;6.00;4.00
75960;PMS7003;64644;48.914;2.254;2023-05-10T13:40:48;7.00;6.00;4.25
75960;PMS7003;64644;48.914;2.254;2023-05-10T13:43:17;8.50;6.00;4.00
75960;PMS7003;64644;48.914;2.254;2023-05-10T13:45:42;9.25;6.50;5.00
75960;PMS7003;64644;48.914;2.254;2023-05-10T13:48:07;6.50;6.25;5.00
75960;PMS7003;64644;48.914;2.254;2023-05-10T13:50:33;8.75;6.00;4.25
75960;PMS7003;64644;48.914;2.254;2023-05-10T13:52:58;8.25;6.00;4.25
75960;PMS7003;64644;48.914;2.254;2023-05-10T13:55:23;6.25;5.25;3.50
75960;PMS7003;64644;48.914;2.254;2023-05-10T13:57:49;5.50;5.00;3.00
75960;PMS7003;64644;48.914;2.254;2023-05-10T14:00:14;6.50;4.25;3.25
75960;PMS7003;64644;48.914;2.254;2023-05-10T14:02:40;5.00;5.00;3.00
75960;PMS7003;64644;48.914;2.254;2023-05-10T14:05:05;4.00;2.25;1.75
75960;PMS7003;64644;48.914;2.254;2023-05-10T14:07:31;4.00;3.00;2.00
75960;PMS7003;64644;48.914;2.254;2023-05-10T14:09:56;4.75;3.75;3.00
75960;PMS7003;64644;48.914;2.254;2023-05-10T14:12:21;4.75;3.50;2.50
75960;PMS7003;64644;48.914;2.254;2023-05-10T14:14:47;6.00;3.00;2.00
75960;PMS7003;64644;48.914;2.254;2023-05-10T14:17:12;2.00;2.00;1.50
75960;PMS7003;64644;48.914;2.254;2023-05-10T14:19:37;3.00;2.00;1.00
75960;PMS7003;64644;48.914;2.254;2023-05-10T14:22:03;1.75;1.75;1.00
75960;PMS7003;64644;48.914;2.254;2023-05-10T14:24:28;4.00;3.00;2.50
75960;PMS7003;64644;48.914;2.254;2023-05-10T14:26:54;2.75;2.25;1.75
75960;PMS7003;64644;48.914;2.254;2023-05-10T14:29:20;2.50;1.25;1.00
75960;PMS7003;64644;48.914;2.254;2023-05-10T14:31:45;1.00;1.00;1.00
75960;PMS7003;64644;48.914;2.254;2023-05-10T14:34:11;3.00;1.75;1.00
75960;PMS7003;64644;48.914;2.254;2023-05-10T14:36:36;2.50;2.00;2.00
75960;PMS7003;64644;48.914;2.254;2023-05-10T14:39:01;2.25;2.25;2.00
75960;PMS7003;64644;48.914;2.254;2023-05-10T14:41:27;1.00;1.00;1.00
75960;PMS7003;64644;48.914;2.254;2023-05-10T14:43:53;3.00;3.00;2.00
75960;PMS7003;64644;48.914;2.254;2023-05-10T14:46:18;3.00;2.00;2.00
75960;PMS7003;64644;48.914;2.254;2023-05-10T14:48:44;3.00;3.00;2.25
75960;PMS7003;64644;48.914;2.254;2023-05-10T14:51:09;2.00;2.00;1.00
75960;PMS7003;64644;48.914;2.254;2023-05-10T14:53:34;4.25;3.75;2.75